• Join FlightAware (Why Join?)
  • Login
  • US Flag 
07:53PM EDT


 

Airport Tracker/Info


-or-


 

Live Flight TrackerFlight Track Log ✈ VH-SSM ✈ 17-Jun-2013 ✈ YBAF - YSBK / BWU

Flight Track Log - Related Links

Times and Time Zones

All times are in EDT time to prevent confusion due to time zone crossing. See the VH-SSM flight status page for this flight to view local times or setup timezone preferences in your user account.

Time Position Orientation Groundspeed Altitude Reporting Facility
EDT Latitude Longitude Course Direction KTS MPH feet Rate Location/Type
09:58PM -27.5870 152.9786 159° South 154 177 2,200  Level Aus ATC (RADAR)
09:59PM -27.5975 152.9832 159° South 161 185 3,100 2,640 Climbing Aus ATC (RADAR)
09:59PM -27.6191 152.9919 160° South 148 170 4,400 2,220 Climbing Aus ATC (RADAR)
10:00PM -27.6585 152.9983 172° South 157 181 6,400 2,100 Climbing Aus ATC (RADAR)
10:01PM -27.6839 152.9978 181° South 159 183 7,600 1,860 Climbing Aus ATC (RADAR)
10:02PM -27.7205 152.9927 187° South 164 189 9,100 2,100 Climbing Aus ATC (RADAR)
10:02PM -27.7355 152.9899 189° South 165 190 10,100 2,160 Climbing Aus ATC (RADAR)
10:03PM -27.7598 152.9841 192° South 158 182 11,100 1,800 Climbing Aus ATC (RADAR)
10:04PM -27.8101 152.9750 189° South 169 194 13,100 1,800 Climbing Aus ATC (RADAR)
10:04PM -27.8215 152.9735 186° South 166 191 13,500 1,680 Climbing Aus ATC (RADAR)
10:04PM -27.8494 152.9706 185° South 173 199 14,500 1,620 Climbing Aus ATC (RADAR)
10:05PM -27.8904 152.9648 187° South 180 207 15,800 1,620 Climbing Aus ATC (RADAR)
10:06PM -27.9184 152.9592 190° South 176 203 16,800 1,440 Climbing Aus ATC (RADAR)
10:07PM -27.9651 152.9539 186° South 187 215 18,000 1,320 Climbing Aus ATC (RADAR)
10:07PM -27.9780 152.9523 186° South 187 215 18,400 1,440 Climbing Aus ATC (RADAR)
10:08PM -28.0062 152.9469 189° South 178 205 19,200 900 Climbing Aus ATC (RADAR)
10:09PM -28.0615 152.9362 190° South 193 222 19,900 480 Climbing Aus ATC (RADAR)
10:09PM -28.0761 152.9329 191° South 204 235 19,900  Level Aus ATC (RADAR)
10:09PM -28.0962 152.9280 192° South 216 249 19,900  Level Aus ATC (RADAR)
10:11PM -28.2219 152.8939 193° South 258 297 19,900 -60 Level Aus ATC (RADAR)
10:13PM -28.3288 152.8453 202° Southwest 269 310 19,800  Descending Aus ATC (RADAR)
10:15PM -28.4522 152.7784 205° Southwest 258 297 19,900  Climbing Aus ATC (RADAR)
10:16PM -28.5310 152.7338 206° Southwest 252 290 19,900 -120 Level Aus ATC (RADAR)
10:16PM -28.5456 152.7233 212° Southwest 250 288 19,800 60 Descending Aus ATC (RADAR)
10:18PM -28.6358 152.6759 205° Southwest 255 293 20,000  Climbing Aus ATC (RADAR)
10:20PM -28.8469 152.6190 193° South 258 297 19,900  Descending Aus ATC (RADAR)
10:22PM -28.9387 152.6007 190° South 269 310 20,000 60 Climbing Aus ATC (RADAR)
10:22PM -28.9571 152.5989 185° South 268 308 20,000 -60 Level Aus ATC (RADAR)
10:23PM -29.0564 152.5679 195° South 258 297 19,900 -60 Descending Aus ATC (RADAR)
10:26PM -29.2296 152.4793 204° Southwest 251 289 19,900  Level Aus ATC (RADAR)
10:27PM -29.3025 152.4263 212° Southwest 249 287 19,900  Level Aus ATC (RADAR)
10:28PM -29.3543 152.3848 215° Southwest 249 287 19,900  Level Aus ATC (RADAR)
10:29PM -29.3889 152.3602 212° Southwest 252 290 19,900 -120 Level Aus ATC (RADAR)
10:30PM -29.4416 152.3298 207° Southwest 255 293 19,800 -120 Descending Aus ATC (RADAR)
10:30PM -29.4681 152.3138 208° Southwest 259 298 19,800 60 Level Aus ATC (RADAR)
10:31PM -29.5636 152.2717 201° Southwest 261 300 20,000  Climbing Aus ATC (RADAR)
10:32PM -29.5810 152.2643 200° South 263 303 19,800 -120 Descending Aus ATC (RADAR)
10:32PM -29.6289 152.2477 197° South 270 311 19,900 60 Climbing Aus ATC (RADAR)
10:33PM -29.6709 152.2337 196° South 269 310 19,900  Level Aus ATC (RADAR)
10:33PM -29.7110 152.2164 201° Southwest 264 304 19,900 -120 Level Aus ATC (RADAR)
10:34PM -29.7665 152.1847 206° Southwest 266 306 19,800  Descending Aus ATC (RADAR)
10:35PM -29.7829 152.1746 208° Southwest 267 307 19,900 240 Climbing Aus ATC (RADAR)
10:35PM -29.8208 152.1520 207° Southwest 264 304 20,000  Climbing Aus ATC (RADAR)
10:36PM -29.9088 152.1030 206° Southwest 264 304 19,900 -120 Descending Aus ATC (RADAR)
10:37PM -29.9252 152.0937 206° Southwest 264 304 19,900 -120 Level Aus ATC (RADAR)
10:37PM -29.9665 152.0766 200° South 272 313 19,800  Descending Aus ATC (RADAR)
10:38PM -30.0244 152.0522 200° South 265 305 19,900 60 Climbing Aus ATC (RADAR)
10:39PM -30.0633 152.0312 205° Southwest 265 305 19,900  Level Aus ATC (RADAR)
10:40PM -30.1194 152.0010 205° Southwest 270 311 19,900  Level Aus ATC (RADAR)
10:40PM -30.1492 151.9905 197° South 269 310 19,900 60 Level Aus ATC (RADAR)
10:41PM -30.2159 151.9702 195° South 269 310 20,000  Climbing Aus ATC (RADAR)
10:41PM -30.2515 151.9581 196° South 268 308 19,900 -180 Descending Aus ATC (RADAR)
10:42PM -30.2692 151.9514 198° South 268 308 19,900  Level Aus ATC (RADAR)
10:42PM -30.3104 151.9357 198° South 267 307 19,900 60 Level Aus ATC (RADAR)
10:43PM -30.3688 151.9106 200° South 269 310 20,000 -120 Climbing Aus ATC (RADAR)
10:44PM -30.4096 151.8907 203° Southwest 273 314 19,800 -180 Descending Aus ATC (RADAR)
10:44PM -30.4708 151.8702 196° South 274 315 19,800  Level Aus ATC (RADAR)
10:45PM -30.4895 151.8654 192° South 274 315 19,800  Level Aus ATC (RADAR)
10:45PM -30.5335 151.8567 190° South 273 314 19,800  Level Aus ATC (RADAR)
10:47PM -30.6339 151.8374 189° South 274 315 19,800  Level Aus ATC (RADAR)
10:47PM -30.6528 151.8340 189° South 274 315 19,800  Level Aus ATC (RADAR)
10:47PM -30.6960 151.8260 189° South 269 310 19,800 -180 Level Aus ATC (RADAR)
10:48PM -30.7515 151.8132 191° South 271 312 19,600  Descending Aus ATC (RADAR)
10:49PM -30.7943 151.8021 192° South 269 310 19,800 120 Climbing Aus ATC (RADAR)
10:50PM -30.8557 151.7880 191° South 271 312 19,800 60 Level Aus ATC (RADAR)
10:50PM -30.8859 151.7811 191° South 267 307 19,900 -120 Climbing Aus ATC (RADAR)
10:51PM -30.9636 151.7568 195° South 267 307 19,700 -180 Descending Aus ATC (RADAR)
10:52PM -31.0105 151.7392 198° South 266 306 19,600 60 Descending Aus ATC (RADAR)
10:52PM -31.0272 151.7301 205° Southwest 265 305 19,800 240 Climbing Aus ATC (RADAR)
10:53PM -31.0645 151.7072 208° Southwest 262 302 19,800 60 Level Aus ATC (RADAR)
10:53PM -31.1123 151.6770 208° Southwest 261 300 19,900  Climbing Aus ATC (RADAR)
10:54PM -31.1501 151.6535 208° Southwest 264 304 19,800  Descending Aus ATC (RADAR)
10:55PM -31.2139 151.6111 210° Southwest 264 304 19,900 60 Climbing Aus ATC (RADAR)
10:55PM -31.2301 151.6011 208° Southwest 263 303 19,900  Level Aus ATC (RADAR)
10:56PM -31.3086 151.5454 211° Southwest 267 307 19,900 -60 Level Aus ATC (RADAR)
10:57PM -31.3486 151.5260 202° Southwest 270 311 19,800 -240 Descending Aus ATC (RADAR)
10:57PM -31.3722 151.5161 200° South 271 312 19,700  Descending Aus ATC (RADAR)
10:58PM -31.4128 151.4972 202° Southwest 268 308 19,800  Climbing Aus ATC (RADAR)
10:59PM -31.4655 151.4753 200° South 266 306 19,700 -120 Descending Aus ATC (RADAR)
10:59PM -31.5076 151.4599 197° South 268 308 19,700 120 Level Aus ATC (RADAR)
11:00PM -31.5702 151.4296 202° Southwest 264 304 19,900 60 Climbing Aus ATC (RADAR)
11:00PM -31.5871 151.4216 202° Southwest 264 304 19,800 -180 Descending Aus ATC (RADAR)
11:02PM -31.6755 151.3711 206° Southwest 263 303 19,700 -120 Descending Aus ATC (RADAR)
11:02PM -31.6920 151.3617 206° Southwest 263 303 19,700 240 Level Aus ATC (RADAR)
11:03PM -31.7301 151.3389 207° Southwest 263 303 19,900  Climbing Aus ATC (RADAR)
11:04PM -31.8093 151.2989 203° Southwest 266 306 19,800  Descending Aus ATC (RADAR)
11:04PM -31.8495 151.2806 201° Southwest 266 306 19,900 60 Climbing Aus ATC (RADAR)
11:05PM -31.8950 151.2581 203° Southwest 266 306 19,900  Level Aus ATC (RADAR)
11:06PM -31.9339 151.2366 205° Southwest 264 304 19,900  Level Aus ATC (RADAR)
11:07PM -32.0234 151.1862 206° Southwest 271 312 19,900  Level Aus ATC (RADAR)
11:07PM -32.0403 151.1773 204° Southwest 268 308 19,900  Level Aus ATC (RADAR)
11:08PM -32.0792 151.1575 203° Southwest 263 303 19,900  Level Aus ATC (RADAR)
11:09PM -32.1384 151.1243 205° Southwest 264 304 19,900 -120 Level Aus ATC (RADAR)
11:09PM -32.1793 151.1010 206° Southwest 266 306 19,800  Descending Aus ATC (RADAR)
11:10PM -32.2370 151.0668 207° Southwest 260 299 19,900 60 Climbing Aus ATC (RADAR)
11:10PM -32.2535 151.0575 205° Southwest 261 300 19,900  Level Aus ATC (RADAR)
11:12PM -32.3324 151.0120 206° Southwest 262 302 19,900  Level Aus ATC (RADAR)
11:12PM -32.3668 150.9950 203° Southwest 266 306 19,900 -300 Level Aus ATC (RADAR)
11:12PM -32.3838 150.9866 203° Southwest 266 306 19,700  Descending Aus ATC (RADAR)
11:13PM -32.4235 150.9659 204° Southwest 267 307 19,900 120 Climbing Aus ATC (RADAR)
11:14PM -32.4800 150.9372 203° Southwest 264 304 19,900 -180 Level Aus ATC (RADAR)
11:14PM -32.5180 150.9132 208° Southwest 265 305 19,700  Descending Aus ATC (RADAR)
11:15PM -32.5843 150.8943 194° South 267 307 19,900 120 Climbing Aus ATC (RADAR)
11:16PM -32.6022 150.8889 194° South 267 307 19,900 -180 Level Aus ATC (RADAR)
11:17PM -32.6960 150.8816 184° South 269 310 19,700 -60 Descending Aus ATC (RADAR)
11:17PM -32.7400 150.8790 183° South 268 308 19,800 60 Climbing Aus ATC (RADAR)
11:18PM -32.7617 150.8756 188° South 268 308 19,800 -120 Level Aus ATC (RADAR)
11:18PM -32.8052 150.8708 185° South 270 311 19,700 -960 Descending Aus ATC (RADAR)
11:19PM -32.8704 150.8607 187° South 289 333 18,500 -1,380 Descending Aus ATC (RADAR)
11:20PM -32.9183 150.8513 189° South 298 343 17,800 -1,380 Descending Aus ATC (RADAR)
11:20PM -32.9905 150.8414 187° South 296 341 16,600 -1,380 Descending Aus ATC (RADAR)
11:21PM -33.0114 150.8382 187° South 298 343 16,300 -1,380 Descending Aus ATC (RADAR)
11:22PM -33.1180 150.8194 188° South 279 321 14,500 -1,440 Descending Aus ATC (RADAR)
11:22PM -33.1373 150.8157 189° South 277 319 14,100 -1,560 Descending Aus ATC (RADAR)
11:23PM -33.1827 150.8086 187° South 277 319 13,200 -1,200 Descending Aus ATC (RADAR)
11:24PM -33.2464 150.7997 187° South 271 312 12,400 -960 Descending Aus ATC (RADAR)
11:24PM -33.2891 150.7921 188° South 264 304 11,900 -1,080 Descending Aus ATC (RADAR)
11:25PM -33.3546 150.7807 188° South 267 307 10,900 -1,200 Descending Aus ATC (RADAR)
11:25PM -33.3733 150.7806 180° South 267 307 10,600 -1,560 Descending Aus ATC (RADAR)
11:26PM -33.4175 150.7836 177° South 274 315 9,600 -1,440 Descending Aus ATC (RADAR)
11:27PM -33.5138 150.7839 180° South 262 302 8,000 -1,320 Descending Aus ATC (RADAR)
11:28PM -33.5320 150.7816 186° South 259 298 7,600 -1,800 Descending Aus ATC (RADAR)
11:28PM -33.5751 150.7742 188° South 263 303 6,500 -1,860 Descending Aus ATC (RADAR)
11:29PM -33.6304 150.7884 168° South 243 280 5,000 -1,560 Descending Aus ATC (RADAR)
11:30PM -33.6599 150.8174 141° Southeast 226 260 4,300 -1,320 Descending Aus ATC (RADAR)
11:30PM -33.7079 150.8445 155° Southeast 220 253 3,200 -1,200 Descending Aus ATC (RADAR)
11:31PM -33.7223 150.8510 160° South 216 249 3,000 -960 Descending Aus ATC (RADAR)
11:31PM -33.7558 150.8666 159° South 215 247 2,400 -840 Descending Aus ATC (RADAR)
11:32PM -33.8266 150.9032 157° South 210 242 1,500 -540 Descending Aus ATC (RADAR)
11:33PM -33.8448 150.9219 139° Southeast 202 232 1,500  Level Aus ATC (RADAR)
11:33PM -33.8693 150.9467 140° Southeast 193 222 1,500 -120 Level Aus ATC (RADAR)
11:34PM -33.8893 150.9790 127° Southeast 177 204 1,400 -240 Descending Aus ATC (RADAR)
11:35PM -33.9013 151.0113 114° Southeast 178 205 1,200 -600 Descending Aus ATC (RADAR)
11:36PM -33.9245 151.0339 141° Southeast 141 162 600 -600 Descending Aus ATC (RADAR)
11:36PM -33.9373 151.0248 210° Southwest 127 146 500 -240 Descending Aus ATC (RADAR)